createdAt,value
2018-12-17T00:00:45.253Z,0.90
2018-12-17T00:05:52.349Z,0.80
2018-12-17T00:10:58.859Z,0.80
2018-12-17T00:16:03.848Z,0.90
2018-12-17T00:21:08.720Z,1.00
2018-12-17T00:26:13.735Z,1.00
2018-12-17T00:31:18.516Z,1.00
2018-12-17T00:36:23.544Z,1.00
2018-12-17T00:41:29.603Z,1.10
2018-12-17T00:46:34.370Z,1.10
2018-12-17T00:51:39.195Z,1.10
2018-12-17T00:56:44.091Z,1.30
2018-12-17T01:01:49.755Z,1.30
2018-12-17T01:06:54.475Z,1.30
2018-12-17T01:11:59.530Z,1.20
2018-12-17T01:17:04.088Z,1.10
2018-12-17T01:22:08.704Z,1.20
2018-12-17T01:27:13.759Z,1.20
2018-12-17T01:32:18.707Z,1.20
2018-12-17T01:37:23.745Z,1.20
2018-12-17T01:42:28.684Z,1.40
2018-12-17T01:47:33.605Z,1.30
2018-12-17T01:52:38.473Z,1.40
2018-12-17T01:57:43.360Z,1.40
2018-12-17T02:02:48.374Z,1.40
2018-12-17T02:07:53.705Z,1.40
2018-12-17T02:12:58.578Z,1.30
2018-12-17T02:18:03.508Z,1.30
2018-12-17T02:23:08.366Z,1.30
2018-12-17T02:28:13.238Z,1.20
2018-12-17T02:33:18.267Z,1.40
2018-12-17T02:38:23.239Z,1.40
2018-12-17T02:43:28.166Z,1.40
2018-12-17T02:48:33.120Z,1.50
2018-12-17T02:53:38.073Z,1.40
2018-12-17T02:58:44.115Z,1.40
2018-12-17T03:03:49.388Z,1.50
2018-12-17T03:08:54.363Z,1.50
2018-12-17T03:13:59.263Z,1.50
2018-12-17T03:19:04.122Z,1.60
2018-12-17T03:24:09.017Z,1.60
2018-12-17T03:29:14.009Z,1.60
2018-12-17T03:34:18.868Z,1.50
2018-12-17T03:39:23.837Z,1.60
2018-12-17T03:44:28.669Z,1.60
2018-12-17T03:49:33.505Z,1.60
2018-12-17T03:54:38.467Z,1.60
2018-12-17T03:59:43.411Z,1.60
2018-12-17T04:04:48.708Z,1.70
2018-12-17T04:09:53.757Z,1.60
2018-12-17T04:14:58.649Z,1.80
2018-12-17T04:20:03.425Z,1.80
2018-12-17T04:25:08.347Z,1.70
2018-12-17T04:30:13.288Z,1.60
2018-12-17T04:35:18.153Z,1.70
2018-12-17T04:40:23.013Z,1.70
2018-12-17T04:45:28.032Z,1.70
2018-12-17T04:50:33.055Z,1.80
2018-12-17T04:55:38.048Z,1.80
2018-12-17T05:00:42.993Z,1.80
2018-12-17T05:05:47.939Z,1.80
2018-12-17T05:10:52.879Z,1.70
2018-12-17T05:15:57.796Z,1.60
2018-12-17T05:21:02.664Z,1.70
2018-12-17T05:26:07.416Z,1.60
2018-12-17T05:31:12.458Z,1.60
2018-12-17T05:36:17.416Z,1.60
2018-12-17T05:41:22.182Z,1.70
2018-12-17T05:46:27.075Z,1.70
2018-12-17T05:51:32.070Z,1.80
2018-12-17T05:56:36.926Z,1.80
2018-12-17T06:01:41.820Z,1.70
2018-12-17T06:06:46.672Z,1.70
2018-12-17T06:11:51.572Z,1.70
2018-12-17T06:16:57.329Z,1.70
2018-12-17T06:22:02.361Z,1.80
2018-12-17T06:27:07.298Z,1.70
2018-12-17T06:32:12.230Z,1.80
2018-12-17T06:37:17.091Z,1.70
2018-12-17T06:42:21.960Z,1.80
2018-12-17T06:47:26.877Z,1.80
2018-12-17T06:52:31.768Z,1.70
2018-12-17T06:57:37.719Z,1.80
2018-12-17T07:02:42.568Z,1.80
2018-12-17T07:07:47.533Z,1.80
2018-12-17T07:12:52.442Z,1.80
2018-12-17T07:17:57.224Z,1.80
2018-12-17T07:23:02.365Z,1.80
2018-12-17T07:28:07.283Z,1.80
2018-12-17T07:33:12.067Z,2.00
2018-12-17T07:38:16.868Z,2.00
2018-12-17T07:43:21.619Z,2.10
2018-12-17T07:48:26.488Z,2.20
2018-12-17T07:53:31.404Z,2.20
2018-12-17T07:58:36.052Z,2.20
2018-12-17T08:03:41.012Z,2.20
2018-12-17T08:08:45.856Z,2.20
2018-12-17T08:13:50.713Z,2.20
2018-12-17T08:18:55.651Z,2.30
2018-12-17T08:24:00.605Z,2.40
2018-12-17T08:29:05.540Z,2.70
2018-12-17T08:34:10.401Z,2.80
2018-12-17T08:39:15.355Z,2.90
2018-12-17T08:44:20.385Z,2.90
2018-12-17T08:49:25.157Z,3.00
2018-12-17T08:54:30.052Z,3.00
2018-12-17T08:59:34.910Z,3.20
2018-12-17T09:04:39.662Z,3.30
2018-12-17T09:09:44.615Z,3.30
2018-12-17T09:14:49.553Z,3.40
2018-12-17T09:19:54.382Z,3.40
2018-12-17T09:24:59.283Z,3.40
2018-12-17T09:30:04.823Z,3.50
2018-12-17T09:35:09.897Z,3.50
2018-12-17T09:40:14.825Z,3.60
2018-12-17T09:45:19.652Z,3.70
2018-12-17T09:50:24.624Z,3.80
2018-12-17T09:55:29.456Z,4.00
2018-12-17T10:00:34.303Z,4.00
2018-12-17T10:05:39.257Z,4.00
2018-12-17T10:10:44.099Z,4.10
2018-12-17T10:15:48.936Z,4.00
2018-12-17T10:20:53.816Z,3.90
2018-12-17T10:25:58.632Z,3.90
2018-12-17T10:31:03.571Z,4.20
2018-12-17T10:36:08.467Z,4.40
2018-12-17T10:41:13.290Z,4.50
2018-12-17T10:46:20.271Z,4.70
2018-12-17T10:51:25.109Z,4.80
2018-12-17T10:56:30.041Z,5.20
2018-12-17T11:01:39.968Z,5.40
2018-12-17T11:06:45.194Z,5.90
2018-12-17T11:11:50.129Z,5.90
2018-12-17T11:16:55.087Z,6.00
2018-12-17T11:21:59.939Z,5.80
2018-12-17T11:27:04.885Z,5.60
2018-12-17T11:32:11.706Z,5.80
2018-12-17T11:37:16.696Z,6.00
2018-12-17T11:42:21.648Z,5.80
2018-12-17T11:47:26.500Z,5.70
2018-12-17T11:52:31.455Z,5.80
2018-12-17T11:57:50.093Z,5.90
2018-12-17T12:02:59.218Z,5.80
2018-12-17T12:08:03.927Z,5.90
2018-12-17T12:13:08.749Z,6.10
2018-12-17T12:18:13.656Z,6.40
2018-12-17T12:23:18.522Z,6.40
2018-12-17T12:28:23.289Z,6.60
2018-12-17T12:33:28.329Z,6.80
2018-12-17T12:38:33.267Z,6.50
2018-12-17T12:43:38.212Z,6.30
2018-12-17T12:48:43.084Z,6.10
2018-12-17T12:53:47.943Z,6.00
2018-12-17T12:58:52.986Z,5.80
2018-12-17T13:03:57.840Z,5.60
2018-12-17T13:09:03.124Z,5.70
2018-12-17T13:14:08.144Z,5.60
2018-12-17T13:19:13.111Z,5.30
2018-12-17T13:24:18.228Z,5.00
2018-12-17T13:29:22.952Z,4.90
2018-12-17T13:34:27.716Z,4.70
2018-12-17T13:39:32.666Z,4.70
2018-12-17T13:44:37.500Z,4.60
2018-12-17T13:49:42.437Z,4.60
2018-12-17T13:54:47.545Z,4.70
2018-12-17T13:59:52.449Z,4.70
2018-12-17T14:04:57.314Z,4.70
2018-12-17T14:10:07.264Z,4.70
2018-12-17T14:15:12.108Z,4.50
2018-12-17T14:20:22.160Z,4.40
2018-12-17T14:25:27.040Z,4.20
2018-12-17T14:30:31.861Z,4.00
2018-12-17T14:35:36.632Z,3.70
2018-12-17T14:40:41.572Z,3.40
2018-12-17T14:45:46.393Z,3.10
2018-12-17T14:50:51.160Z,3.00
2018-12-17T14:55:56.211Z,3.00
2018-12-17T15:01:01.079Z,2.90
2018-12-17T15:06:05.884Z,2.90
2018-12-17T15:11:10.753Z,2.80
2018-12-17T15:16:15.766Z,2.80
2018-12-17T15:21:20.651Z,2.80
2018-12-17T15:26:25.653Z,2.60
2018-12-17T15:31:30.639Z,2.60
2018-12-17T15:36:35.495Z,2.60
2018-12-17T15:41:40.328Z,2.50
2018-12-17T15:46:45.251Z,2.40
2018-12-17T15:51:50.215Z,2.30
2018-12-17T15:56:54.954Z,2.20
2018-12-17T16:01:59.938Z,2.20
2018-12-17T16:07:04.874Z,2.30
2018-12-17T16:12:09.819Z,2.40
2018-12-17T16:17:14.861Z,2.40
2018-12-17T16:22:19.734Z,2.60
2018-12-17T16:27:24.879Z,2.60
2018-12-17T16:32:29.839Z,2.60
2018-12-17T16:37:34.731Z,2.60
2018-12-17T16:42:39.605Z,2.60
2018-12-17T16:47:44.575Z,2.60
2018-12-17T16:52:49.595Z,2.70
2018-12-17T16:57:54.579Z,2.60
2018-12-17T17:02:59.414Z,2.60
2018-12-17T17:08:04.467Z,2.40
2018-12-17T17:13:09.335Z,2.40
2018-12-17T17:18:14.232Z,2.30
2018-12-17T17:23:19.116Z,2.20
2018-12-17T17:28:24.450Z,2.10
2018-12-17T17:33:29.281Z,2.10
2018-12-17T17:38:34.240Z,2.30
2018-12-17T17:43:39.087Z,2.30
2018-12-17T17:48:44.136Z,2.40
2018-12-17T17:53:48.988Z,2.50
2018-12-17T17:58:54.145Z,2.50
2018-12-17T18:03:59.184Z,2.60
2018-12-17T18:09:06.075Z,2.70
2018-12-17T18:14:12.295Z,2.80
2018-12-17T18:19:17.207Z,2.80
2018-12-17T18:24:22.379Z,2.70
2018-12-17T18:29:27.409Z,2.70
2018-12-17T18:34:32.785Z,2.80
2018-12-17T18:39:37.848Z,2.80
2018-12-17T18:44:42.671Z,2.90
2018-12-17T18:49:47.608Z,2.90
2018-12-17T18:54:52.465Z,3.00
2018-12-17T18:59:58.438Z,3.00
2018-12-17T19:05:03.568Z,3.10
2018-12-17T19:10:08.604Z,3.10
2018-12-17T19:15:13.577Z,3.20
2018-12-17T19:20:18.332Z,3.20
2018-12-17T19:25:23.254Z,3.20
2018-12-17T19:30:28.119Z,3.30
2018-12-17T19:35:33.094Z,3.30
2018-12-17T19:40:38.022Z,3.30
2018-12-17T19:45:43.050Z,3.40
2018-12-17T19:50:48.124Z,3.40
2018-12-17T19:55:53.040Z,3.50
2018-12-17T20:00:57.873Z,3.50
2018-12-17T20:06:02.978Z,3.50
2018-12-17T20:11:08.021Z,3.60
2018-12-17T20:16:13.145Z,3.60
2018-12-17T20:21:18.091Z,3.50
2018-12-17T20:26:23.036Z,3.50
2018-12-17T20:31:28.010Z,3.60
2018-12-17T20:36:33.009Z,3.60
2018-12-17T20:41:37.903Z,3.60
2018-12-17T20:46:42.836Z,3.50
2018-12-17T20:51:47.777Z,3.60
2018-12-17T20:56:52.644Z,3.60
2018-12-17T21:01:57.714Z,3.60
2018-12-17T21:07:02.740Z,3.60
2018-12-17T21:12:07.681Z,3.60
2018-12-17T21:17:12.718Z,3.50
2018-12-17T21:22:17.556Z,3.40
2018-12-17T21:27:22.405Z,3.30
2018-12-17T21:32:27.468Z,3.20
2018-12-17T21:37:32.286Z,3.20
2018-12-17T21:42:37.962Z,3.20
2018-12-17T21:47:42.944Z,3.20
2018-12-17T21:52:47.768Z,3.10
2018-12-17T21:57:52.722Z,2.90
2018-12-17T22:02:57.644Z,2.70
2018-12-17T22:08:02.399Z,2.50
2018-12-17T22:13:08.270Z,2.30
2018-12-17T22:18:13.134Z,2.20
2018-12-17T22:23:17.882Z,2.00
2018-12-17T22:28:22.920Z,1.90
2018-12-17T22:33:27.850Z,1.90
2018-12-17T22:38:32.816Z,1.90
2018-12-17T22:43:37.679Z,1.80
2018-12-17T22:48:42.511Z,1.80
2018-12-17T22:53:47.439Z,2.00
2018-12-17T22:58:52.197Z,2.10
2018-12-17T23:03:57.133Z,2.30
2018-12-17T23:09:07.282Z,2.40
2018-12-17T23:14:25.337Z,2.40
2018-12-17T23:19:28.951Z,2.50
2018-12-17T23:24:36.631Z,2.50
2018-12-17T23:29:41.658Z,2.50
2018-12-17T23:34:46.581Z,2.40
2018-12-17T23:39:51.690Z,2.20
2018-12-17T23:44:57.103Z,2.10
2018-12-17T23:50:02.053Z,2.10
2018-12-17T23:55:06.976Z,2.00
